This is the latest recevied weather packets stored in our database for station/object N8BAP. If no packets are shown the sender has not sent any weather packets the latest 1 day(s).
| Time | Temp. | Humidity | Pressure | Rain* | Wind** | Luminosity | Snow |
|---|---|---|---|---|---|---|---|
| 1778077359 | 11.11° C | 78% | 1016.7 hPa | 0 mm | - | 378 W/m² | - |
| 1778077057 | 10.56° C | 80% | 1016.7 hPa | 0 mm | - | 358 W/m² | - |
| 1778076149 | 11.11° C | 77% | 1016.5 hPa | 0 mm | - | 469 W/m² | - |
| 1778075542 | 11.11° C | 79% | 1016.5 hPa | 0 mm | - | 388 W/m² | - |
| 1778075239 | 10.56° C | 83% | 1016.2 hPa | 0 mm | - | 540 W/m² | - |
| 1778074935 | 10.56° C | 79% | 1016.4 hPa | 0 mm | - | 554 W/m² | - |
| 1778074329 | 10° C | 81% | 1016.1 hPa | 0 mm | - | 609 W/m² | - |
| 1778073421 | 9.44° C | 87% | 1015.9 hPa | 0 mm | - | 429 W/m² | - |
| 1778071302 | 7.78° C | 92% | 1015.8 hPa | 0 mm | - | 115 W/m² | - |
| 1778070698 | 7.78° C | 93% | 1015.6 hPa | 0 mm | - | 88 W/m² | - |
| 1778069184 | 7.78° C | 95% | 1015.2 hPa | 0 mm | - | 53 W/m² | - |
| 1778068881 | 7.78° C | 95% | 1015 hPa | 0 mm | - | 55 W/m² | - |
| 1778068277 | 7.78° C | 95% | 1014.5 hPa | 0 mm | - | 46 W/m² | - |
| 1778067370 | 7.78° C | 96% | 1014.8 hPa | 0 mm | - | 12 W/m² | - |
| 1778066461 | 7.78° C | 96% | 1014.2 hPa | 0 mm | - | 12 W/m² | - |
| 1778064644 | 7.78° C | 96% | 1013.5 hPa | 0 mm | - | 3 W/m² | - |
| 1778064342 | 7.78° C | 96% | 1013.6 hPa | 0 mm | - | 0 W/m² | - |
| 1778063433 | 7.78° C | 96% | 1013 hPa | 0 mm | - | 0 W/m² | - |
| 1778062525 | 7.78° C | 96% | 1013.2 hPa | 1.27 mm | - | 0 W/m² | - |
| 1778061317 | 7.22° C | 96% | 1013.3 hPa | 0 mm | - | 0 W/m² | - |
| 1778060711 | 7.78° C | 96% | 1013.2 hPa | 0 mm | - | 0 W/m² | - |
| 1778058896 | 7.78° C | 96% | 1013.1 hPa | 1.78 mm | - | 0 W/m² | - |
| 1778058593 | 7.78° C | 97% | 1012.6 hPa | 1.78 mm | - | 0 W/m² | - |
| 1778058291 | 7.78° C | 97% | 1012.7 hPa | 0 mm | - | 0 W/m² | - |
| 1778057684 | 7.78° C | 97% | 1012.7 hPa | 1.27 mm | - | 0 W/m² | - |
* Rain latest hour (hover to see other rain measurements)
** Current wind speed in m/s (hover to see current wind gust speed)